sensor_id;sensor_type;location;lat;lon;timestamp;temperature;humidity
5802;DHT22;2927;49.366;8.530;2023-03-05T00:01:17;3.90;99.90
5802;DHT22;2927;49.366;8.530;2023-03-05T00:03:43;3.80;1.00
5802;DHT22;2927;49.366;8.530;2023-03-05T00:06:09;3.80;40.70
5802;DHT22;2927;49.366;8.530;2023-03-05T00:08:36;3.90;99.90
5802;DHT22;2927;49.366;8.530;2023-03-05T00:11:04;3.90;99.80
5802;DHT22;2927;49.366;8.530;2023-03-05T00:13:30;3.90;1.00
5802;DHT22;2927;49.366;8.530;2023-03-05T00:15:56;3.80;95.40
5802;DHT22;2927;49.366;8.530;2023-03-05T00:18:23;3.90;1.00
5802;DHT22;2927;49.366;8.530;2023-03-05T00:20:48;3.80;1.00
5802;DHT22;2927;49.366;8.530;2023-03-05T00:23:14;3.80;99.90
5802;DHT22;2927;49.366;8.530;2023-03-05T00:25:40;3.80;67.40
5802;DHT22;2927;49.366;8.530;2023-03-05T00:28:07;3.80;1.00
5802;DHT22;2927;49.366;8.530;2023-03-05T00:30:33;3.80;1.00
5802;DHT22;2927;49.366;8.530;2023-03-05T00:33:00;3.80;1.00
5802;DHT22;2927;49.366;8.530;2023-03-05T00:35:26;3.80;1.00
5802;DHT22;2927;49.366;8.530;2023-03-05T00:37:52;3.80;1.00
5802;DHT22;2927;49.366;8.530;2023-03-05T00:40:18;3.80;1.00
5802;DHT22;2927;49.366;8.530;2023-03-05T00:42:43;3.80;1.00
5802;DHT22;2927;49.366;8.530;2023-03-05T00:45:10;3.80;1.00
5802;DHT22;2927;49.366;8.530;2023-03-05T00:47:35;3.80;1.00
5802;DHT22;2927;49.366;8.530;2023-03-05T00:50:02;3.70;1.00
5802;DHT22;2927;49.366;8.530;2023-03-05T00:52:28;3.80;1.00
5802;DHT22;2927;49.366;8.530;2023-03-05T00:54:53;3.70;1.00
5802;DHT22;2927;49.366;8.530;2023-03-05T00:57:19;3.80;99.90
5802;DHT22;2927;49.366;8.530;2023-03-05T00:59:44;3.70;99.90
5802;DHT22;2927;49.366;8.530;2023-03-05T01:02:10;3.80;99.90
5802;DHT22;2927;49.366;8.530;2023-03-05T01:04:36;3.80;99.90
5802;DHT22;2927;49.366;8.530;2023-03-05T01:07:02;3.80;99.90
5802;DHT22;2927;49.366;8.530;2023-03-05T01:09:28;3.80;99.90
5802;DHT22;2927;49.366;8.530;2023-03-05T01:11:54;3.80;1.00
5802;DHT22;2927;49.366;8.530;2023-03-05T01:14:20;3.80;1.00
5802;DHT22;2927;49.366;8.530;2023-03-05T01:16:46;3.70;1.00
5802;DHT22;2927;49.366;8.530;2023-03-05T01:19:13;3.70;1.00
5802;DHT22;2927;49.366;8.530;2023-03-05T01:21:39;3.70;1.00
5802;DHT22;2927;49.366;8.530;2023-03-05T01:24:05;3.60;1.00
5802;DHT22;2927;49.366;8.530;2023-03-05T01:26:31;3.60;1.00
5802;DHT22;2927;49.366;8.530;2023-03-05T01:28:57;3.60;1.00
5802;DHT22;2927;49.366;8.530;2023-03-05T01:31:22;3.60;1.00
5802;DHT22;2927;49.366;8.530;2023-03-05T01:33:51;3.50;1.00
5802;DHT22;2927;49.366;8.530;2023-03-05T01:36:17;3.50;1.00
5802;DHT22;2927;49.366;8.530;2023-03-05T01:38:44;3.50;1.00
5802;DHT22;2927;49.366;8.530;2023-03-05T01:41:10;3.40;1.00
5802;DHT22;2927;49.366;8.530;2023-03-05T01:43:36;3.40;1.00
5802;DHT22;2927;49.366;8.530;2023-03-05T01:48:49;3.50;1.00
5802;DHT22;2927;49.366;8.530;2023-03-05T01:51:17;3.50;1.00
5802;DHT22;2927;49.366;8.530;2023-03-05T01:53:43;3.40;1.00
5802;DHT22;2927;49.366;8.530;2023-03-05T01:56:08;3.40;1.00
5802;DHT22;2927;49.366;8.530;2023-03-05T01:58:34;3.40;1.00
5802;DHT22;2927;49.366;8.530;2023-03-05T02:01:01;3.40;1.00
5802;DHT22;2927;49.366;8.530;2023-03-05T02:03:26;3.40;1.00
5802;DHT22;2927;49.366;8.530;2023-03-05T02:05:52;3.40;1.00
5802;DHT22;2927;49.366;8.530;2023-03-05T02:08:20;3.40;1.00
5802;DHT22;2927;49.366;8.530;2023-03-05T02:10:51;3.40;1.00
5802;DHT22;2927;49.366;8.530;2023-03-05T02:13:20;3.40;1.00
5802;DHT22;2927;49.366;8.530;2023-03-05T02:15:47;3.40;1.00
5802;DHT22;2927;49.366;8.530;2023-03-05T02:18:15;3.40;1.00
5802;DHT22;2927;49.366;8.530;2023-03-05T02:23:24;3.40;1.00
5802;DHT22;2927;49.366;8.530;2023-03-05T02:25:50;3.30;1.00
5802;DHT22;2927;49.366;8.530;2023-03-05T02:30:44;3.40;1.00
5802;DHT22;2927;49.366;8.530;2023-03-05T02:33:13;3.40;1.00
5802;DHT22;2927;49.366;8.530;2023-03-05T02:35:39;3.40;1.00
5802;DHT22;2927;49.366;8.530;2023-03-05T02:38:04;3.30;1.00
5802;DHT22;2927;49.366;8.530;2023-03-05T02:40:30;3.30;1.00
5802;DHT22;2927;49.366;8.530;2023-03-05T02:42:55;3.40;1.00
5802;DHT22;2927;49.366;8.530;2023-03-05T02:45:21;3.40;1.00
5802;DHT22;2927;49.366;8.530;2023-03-05T02:47:47;3.30;1.00
5802;DHT22;2927;49.366;8.530;2023-03-05T02:50:12;3.30;1.00
5802;DHT22;2927;49.366;8.530;2023-03-05T02:52:38;3.30;1.00
5802;DHT22;2927;49.366;8.530;2023-03-05T02:55:05;3.30;1.00
5802;DHT22;2927;49.366;8.530;2023-03-05T02:57:31;3.30;1.00
5802;DHT22;2927;49.366;8.530;2023-03-05T02:59:56;3.30;1.00
5802;DHT22;2927;49.366;8.530;2023-03-05T03:02:22;3.30;1.00
5802;DHT22;2927;49.366;8.530;2023-03-05T03:04:47;3.30;1.00
5802;DHT22;2927;49.366;8.530;2023-03-05T03:07:14;3.20;1.00
5802;DHT22;2927;49.366;8.530;2023-03-05T03:09:40;3.20;1.00
5802;DHT22;2927;49.366;8.530;2023-03-05T03:12:08;3.20;1.00
5802;DHT22;2927;49.366;8.530;2023-03-05T03:14:35;3.30;1.00
5802;DHT22;2927;49.366;8.530;2023-03-05T03:17:06;3.20;1.00
5802;DHT22;2927;49.366;8.530;2023-03-05T03:19:32;3.20;1.00
5802;DHT22;2927;49.366;8.530;2023-03-05T03:21:57;3.20;1.00
5802;DHT22;2927;49.366;8.530;2023-03-05T03:24:23;3.20;1.00
5802;DHT22;2927;49.366;8.530;2023-03-05T03:26:48;3.20;1.00
5802;DHT22;2927;49.366;8.530;2023-03-05T03:29:15;3.20;1.00
5802;DHT22;2927;49.366;8.530;2023-03-05T03:31:42;3.20;1.00
5802;DHT22;2927;49.366;8.530;2023-03-05T03:34:11;3.20;1.00
5802;DHT22;2927;49.366;8.530;2023-03-05T03:36:36;3.20;1.00
5802;DHT22;2927;49.366;8.530;2023-03-05T03:39:02;3.20;1.00
5802;DHT22;2927;49.366;8.530;2023-03-05T03:41:30;3.20;1.00
5802;DHT22;2927;49.366;8.530;2023-03-05T03:43:56;3.20;1.00
5802;DHT22;2927;49.366;8.530;2023-03-05T03:46:21;3.20;1.00
5802;DHT22;2927;49.366;8.530;2023-03-05T03:48:49;3.20;1.00
5802;DHT22;2927;49.366;8.530;2023-03-05T03:51:14;3.20;1.00
5802;DHT22;2927;49.366;8.530;2023-03-05T03:53:40;3.20;1.00
5802;DHT22;2927;49.366;8.530;2023-03-05T03:56:06;3.20;1.00
5802;DHT22;2927;49.366;8.530;2023-03-05T03:58:32;3.20;1.00
5802;DHT22;2927;49.366;8.530;2023-03-05T04:00:57;3.20;1.00
5802;DHT22;2927;49.366;8.530;2023-03-05T04:03:23;3.20;1.00
5802;DHT22;2927;49.366;8.530;2023-03-05T04:05:48;3.20;1.00
5802;DHT22;2927;49.366;8.530;2023-03-05T04:08:14;3.20;1.00
5802;DHT22;2927;49.366;8.530;2023-03-05T04:10:39;3.20;1.00
5802;DHT22;2927;49.366;8.530;2023-03-05T04:13:05;3.20;1.00
5802;DHT22;2927;49.366;8.530;2023-03-05T04:15:32;3.20;1.00
5802;DHT22;2927;49.366;8.530;2023-03-05T04:17:58;3.10;1.00
5802;DHT22;2927;49.366;8.530;2023-03-05T04:20:23;3.10;1.00
5802;DHT22;2927;49.366;8.530;2023-03-05T04:22:49;3.10;1.00
5802;DHT22;2927;49.366;8.530;2023-03-05T04:25:15;3.20;1.00
5802;DHT22;2927;49.366;8.530;2023-03-05T04:27:40;3.20;1.00
5802;DHT22;2927;49.366;8.530;2023-03-05T04:30:07;3.10;1.00
5802;DHT22;2927;49.366;8.530;2023-03-05T04:32:33;3.10;1.00
5802;DHT22;2927;49.366;8.530;2023-03-05T04:34:58;3.10;1.00
5802;DHT22;2927;49.366;8.530;2023-03-05T04:37:25;3.10;1.00
5802;DHT22;2927;49.366;8.530;2023-03-05T04:39:51;3.20;1.00
5802;DHT22;2927;49.366;8.530;2023-03-05T04:42:17;3.10;1.00
5802;DHT22;2927;49.366;8.530;2023-03-05T04:44:47;3.10;1.00
5802;DHT22;2927;49.366;8.530;2023-03-05T04:47:13;3.10;1.00
5802;DHT22;2927;49.366;8.530;2023-03-05T04:49:39;3.10;1.00
5802;DHT22;2927;49.366;8.530;2023-03-05T04:52:04;3.10;1.00
5802;DHT22;2927;49.366;8.530;2023-03-05T04:54:30;3.10;1.00
5802;DHT22;2927;49.366;8.530;2023-03-05T04:56:55;3.20;1.00
5802;DHT22;2927;49.366;8.530;2023-03-05T04:59:21;3.20;1.00
5802;DHT22;2927;49.366;8.530;2023-03-05T05:01:46;3.10;1.00
5802;DHT22;2927;49.366;8.530;2023-03-05T05:04:12;3.20;1.00
5802;DHT22;2927;49.366;8.530;2023-03-05T05:06:37;3.20;1.00
5802;DHT22;2927;49.366;8.530;2023-03-05T05:09:03;3.20;1.00
5802;DHT22;2927;49.366;8.530;2023-03-05T05:11:29;3.10;1.00
5802;DHT22;2927;49.366;8.530;2023-03-05T05:13:54;3.10;1.00
5802;DHT22;2927;49.366;8.530;2023-03-05T05:16:20;3.10;1.00
5802;DHT22;2927;49.366;8.530;2023-03-05T05:18:45;3.10;1.00
5802;DHT22;2927;49.366;8.530;2023-03-05T05:21:12;3.10;1.00
5802;DHT22;2927;49.366;8.530;2023-03-05T05:23:38;3.10;1.00
5802;DHT22;2927;49.366;8.530;2023-03-05T05:26:05;3.10;1.00
5802;DHT22;2927;49.366;8.530;2023-03-05T05:28:31;3.10;1.00
5802;DHT22;2927;49.366;8.530;2023-03-05T05:30:57;3.10;1.00
5802;DHT22;2927;49.366;8.530;2023-03-05T05:33:23;3.10;1.00
5802;DHT22;2927;49.366;8.530;2023-03-05T05:35:49;3.10;1.00
5802;DHT22;2927;49.366;8.530;2023-03-05T05:38:15;3.10;1.00
5802;DHT22;2927;49.366;8.530;2023-03-05T05:40:40;3.10;1.00
5802;DHT22;2927;49.366;8.530;2023-03-05T05:43:06;3.20;1.00
5802;DHT22;2927;49.366;8.530;2023-03-05T05:45:32;3.10;1.00
5802;DHT22;2927;49.366;8.530;2023-03-05T05:47:57;3.10;1.00
5802;DHT22;2927;49.366;8.530;2023-03-05T05:50:23;3.10;1.00
5802;DHT22;2927;49.366;8.530;2023-03-05T05:52:52;3.10;1.00
5802;DHT22;2927;49.366;8.530;2023-03-05T05:55:18;3.10;1.00
5802;DHT22;2927;49.366;8.530;2023-03-05T05:57:43;3.10;1.00
5802;DHT22;2927;49.366;8.530;2023-03-05T06:00:10;3.10;1.00
5802;DHT22;2927;49.366;8.530;2023-03-05T06:02:38;3.10;1.00
5802;DHT22;2927;49.366;8.530;2023-03-05T06:05:04;3.10;1.00
5802;DHT22;2927;49.366;8.530;2023-03-05T06:07:30;3.10;1.00
5802;DHT22;2927;49.366;8.530;2023-03-05T06:09:56;3.10;1.00
5802;DHT22;2927;49.366;8.530;2023-03-05T06:12:21;3.10;1.00
5802;DHT22;2927;49.366;8.530;2023-03-05T06:14:47;3.10;1.00
5802;DHT22;2927;49.366;8.530;2023-03-05T06:17:12;3.10;1.00
5802;DHT22;2927;49.366;8.530;2023-03-05T06:19:38;3.10;1.00
5802;DHT22;2927;49.366;8.530;2023-03-05T06:22:03;3.00;1.00
5802;DHT22;2927;49.366;8.530;2023-03-05T06:24:29;3.00;1.00
5802;DHT22;2927;49.366;8.530;2023-03-05T06:26:54;3.10;1.00
5802;DHT22;2927;49.366;8.530;2023-03-05T06:29:20;3.10;1.00
5802;DHT22;2927;49.366;8.530;2023-03-05T06:31:46;3.00;1.00
5802;DHT22;2927;49.366;8.530;2023-03-05T06:34:11;3.10;1.00
5802;DHT22;2927;49.366;8.530;2023-03-05T06:36:37;3.00;1.00
5802;DHT22;2927;49.366;8.530;2023-03-05T06:39:03;3.00;1.00
5802;DHT22;2927;49.366;8.530;2023-03-05T06:41:30;3.00;1.00
5802;DHT22;2927;49.366;8.530;2023-03-05T06:43:57;3.00;1.00
5802;DHT22;2927;49.366;8.530;2023-03-05T06:46:29;3.10;1.00
5802;DHT22;2927;49.366;8.530;2023-03-05T06:48:57;3.10;1.00
5802;DHT22;2927;49.366;8.530;2023-03-05T06:51:25;3.10;1.00
5802;DHT22;2927;49.366;8.530;2023-03-05T06:53:52;3.10;1.00
5802;DHT22;2927;49.366;8.530;2023-03-05T06:56:19;3.10;1.00
5802;DHT22;2927;49.366;8.530;2023-03-05T06:58:47;3.10;1.00
5802;DHT22;2927;49.366;8.530;2023-03-05T07:01:13;3.10;1.00
5802;DHT22;2927;49.366;8.530;2023-03-05T07:03:39;3.10;1.00
5802;DHT22;2927;49.366;8.530;2023-03-05T07:06:08;3.10;1.00
5802;DHT22;2927;49.366;8.530;2023-03-05T07:08:35;3.20;1.00
5802;DHT22;2927;49.366;8.530;2023-03-05T07:11:00;3.20;1.00
5802;DHT22;2927;49.366;8.530;2023-03-05T07:13:27;3.20;1.00
5802;DHT22;2927;49.366;8.530;2023-03-05T07:15:53;3.20;1.00
5802;DHT22;2927;49.366;8.530;2023-03-05T07:18:19;3.20;1.00
5802;DHT22;2927;49.366;8.530;2023-03-05T07:20:45;3.30;1.00
5802;DHT22;2927;49.366;8.530;2023-03-05T07:23:11;3.30;1.00
5802;DHT22;2927;49.366;8.530;2023-03-05T07:25:37;3.40;1.00
5802;DHT22;2927;49.366;8.530;2023-03-05T07:28:04;3.40;1.00
5802;DHT22;2927;49.366;8.530;2023-03-05T07:30:30;3.50;1.00
5802;DHT22;2927;49.366;8.530;2023-03-05T07:32:56;3.50;1.00
5802;DHT22;2927;49.366;8.530;2023-03-05T07:35:21;3.60;1.00
5802;DHT22;2927;49.366;8.530;2023-03-05T07:37:49;3.70;1.00
5802;DHT22;2927;49.366;8.530;2023-03-05T07:40:15;3.90;1.00
5802;DHT22;2927;49.366;8.530;2023-03-05T07:42:41;4.00;99.90
5802;DHT22;2927;49.366;8.530;2023-03-05T07:45:07;4.10;99.90
5802;DHT22;2927;49.366;8.530;2023-03-05T07:47:33;4.20;53.40
5802;DHT22;2927;49.366;8.530;2023-03-05T07:49:58;4.40;1.00
5802;DHT22;2927;49.366;8.530;2023-03-05T07:52:24;4.50;1.00
5802;DHT22;2927;49.366;8.530;2023-03-05T07:54:49;4.60;3.20
5802;DHT22;2927;49.366;8.530;2023-03-05T07:57:15;4.80;1.00
5802;DHT22;2927;49.366;8.530;2023-03-05T07:59:41;4.80;1.00
5802;DHT22;2927;49.366;8.530;2023-03-05T08:02:10;4.90;99.90
5802;DHT22;2927;49.366;8.530;2023-03-05T08:04:35;5.10;1.00
5802;DHT22;2927;49.366;8.530;2023-03-05T08:07:01;5.20;1.00
5802;DHT22;2927;49.366;8.530;2023-03-05T08:09:27;5.50;1.00
5802;DHT22;2927;49.366;8.530;2023-03-05T08:11:52;5.50;1.00
5802;DHT22;2927;49.366;8.530;2023-03-05T08:14:18;5.40;1.00
5802;DHT22;2927;49.366;8.530;2023-03-05T08:16:43;5.60;99.90
5802;DHT22;2927;49.366;8.530;2023-03-05T08:19:09;5.70;1.00
5802;DHT22;2927;49.366;8.530;2023-03-05T08:21:35;5.70;1.00
5802;DHT22;2927;49.366;8.530;2023-03-05T08:24:06;5.60;1.00
5802;DHT22;2927;49.366;8.530;2023-03-05T08:26:34;5.50;99.90
5802;DHT22;2927;49.366;8.530;2023-03-05T08:28:59;5.40;1.00
5802;DHT22;2927;49.366;8.530;2023-03-05T08:31:26;5.40;1.00
5802;DHT22;2927;49.366;8.530;2023-03-05T08:33:53;5.60;1.80
5802;DHT22;2927;49.366;8.530;2023-03-05T08:36:19;5.80;1.00
5802;DHT22;2927;49.366;8.530;2023-03-05T08:38:45;5.80;99.90
5802;DHT22;2927;49.366;8.530;2023-03-05T08:41:13;5.80;1.00
5802;DHT22;2927;49.366;8.530;2023-03-05T08:43:39;5.80;34.00
5802;DHT22;2927;49.366;8.530;2023-03-05T08:46:05;6.00;1.00
5802;DHT22;2927;49.366;8.530;2023-03-05T08:48:32;6.00;1.00
5802;DHT22;2927;49.366;8.530;2023-03-05T08:51:11;6.30;99.90
5802;DHT22;2927;49.366;8.530;2023-03-05T08:53:37;6.20;1.00
5802;DHT22;2927;49.366;8.530;2023-03-05T08:56:03;6.10;1.00
5802;DHT22;2927;49.366;8.530;2023-03-05T08:58:29;5.90;99.90
5802;DHT22;2927;49.366;8.530;2023-03-05T09:00:55;5.90;99.90
5802;DHT22;2927;49.366;8.530;2023-03-05T09:03:20;6.00;1.00
5802;DHT22;2927;49.366;8.530;2023-03-05T09:05:46;6.10;1.00
5802;DHT22;2927;49.366;8.530;2023-03-05T09:08:12;6.20;1.00
5802;DHT22;2927;49.366;8.530;2023-03-05T09:10:40;6.40;1.00
5802;DHT22;2927;49.366;8.530;2023-03-05T09:13:07;6.50;1.00
5802;DHT22;2927;49.366;8.530;2023-03-05T09:15:32;6.60;99.90
5802;DHT22;2927;49.366;8.530;2023-03-05T09:17:58;6.70;99.90
5802;DHT22;2927;49.366;8.530;2023-03-05T09:20:24;6.60;1.00
5802;DHT22;2927;49.366;8.530;2023-03-05T09:22:49;6.70;25.10
5802;DHT22;2927;49.366;8.530;2023-03-05T09:25:15;6.70;1.00
5802;DHT22;2927;49.366;8.530;2023-03-05T09:27:41;6.50;1.00
5802;DHT22;2927;49.366;8.530;2023-03-05T09:30:08;6.60;1.00
5802;DHT22;2927;49.366;8.530;2023-03-05T09:32:34;6.60;1.00
5802;DHT22;2927;49.366;8.530;2023-03-05T09:34:59;6.60;1.00
5802;DHT22;2927;49.366;8.530;2023-03-05T09:37:25;6.60;1.00
5802;DHT22;2927;49.366;8.530;2023-03-05T09:39:51;6.60;99.90
5802;DHT22;2927;49.366;8.530;2023-03-05T09:42:44;6.60;1.00
5802;DHT22;2927;49.366;8.530;2023-03-05T09:45:21;6.60;1.00
5802;DHT22;2927;49.366;8.530;2023-03-05T09:50:38;6.40;99.90
5802;DHT22;2927;49.366;8.530;2023-03-05T09:53:44;6.40;99.90
5802;DHT22;2927;49.366;8.530;2023-03-05T09:56:22;6.30;1.00
5802;DHT22;2927;49.366;8.530;2023-03-05T09:58:51;6.40;99.90
5802;DHT22;2927;49.366;8.530;2023-03-05T10:01:27;6.40;99.90
5802;DHT22;2927;49.366;8.530;2023-03-05T10:06:37;6.60;99.90
5802;DHT22;2927;49.366;8.530;2023-03-05T10:31:16;6.60;99.90
5802;DHT22;2927;49.366;8.530;2023-03-05T10:36:32;6.40;99.90
5802;DHT22;2927;49.366;8.530;2023-03-05T10:44:48;6.60;4.20
5802;DHT22;2927;49.366;8.530;2023-03-05T10:49:55;6.60;1.00
5802;DHT22;2927;49.366;8.530;2023-03-05T10:54:52;6.70;1.00
5802;DHT22;2927;49.366;8.530;2023-03-05T10:57:26;6.70;1.00
5802;DHT22;2927;49.366;8.530;2023-03-05T11:02:22;6.50;1.00
5802;DHT22;2927;49.366;8.530;2023-03-05T11:04:49;6.50;1.00
5802;DHT22;2927;49.366;8.530;2023-03-05T11:10:14;6.60;1.00
5802;DHT22;2927;49.366;8.530;2023-03-05T11:12:41;6.60;1.00
5802;DHT22;2927;49.366;8.530;2023-03-05T11:17:47;6.40;1.00
5802;DHT22;2927;49.366;8.530;2023-03-05T11:25:59;6.60;1.00
5802;DHT22;2927;49.366;8.530;2023-03-05T11:28:29;6.70;1.00
5802;DHT22;2927;49.366;8.530;2023-03-05T11:30:58;6.70;1.00
5802;DHT22;2927;49.366;8.530;2023-03-05T11:33:24;6.80;1.00
5802;DHT22;2927;49.366;8.530;2023-03-05T11:35:52;6.80;1.00
5802;DHT22;2927;49.366;8.530;2023-03-05T11:38:25;7.00;1.00
5802;DHT22;2927;49.366;8.530;2023-03-05T11:40:54;7.10;1.00
5802;DHT22;2927;49.366;8.530;2023-03-05T11:43:23;7.10;1.00
5802;DHT22;2927;49.366;8.530;2023-03-05T11:46:03;7.10;1.00
5802;DHT22;2927;49.366;8.530;2023-03-05T11:48:34;7.30;1.00
5802;DHT22;2927;49.366;8.530;2023-03-05T11:51:02;7.40;1.00
5802;DHT22;2927;49.366;8.530;2023-03-05T11:53:32;7.50;1.00
5802;DHT22;2927;49.366;8.530;2023-03-05T11:56:19;7.50;1.00
5802;DHT22;2927;49.366;8.530;2023-03-05T12:01:21;7.90;1.00
5802;DHT22;2927;49.366;8.530;2023-03-05T12:03:48;7.90;99.90
5802;DHT22;2927;49.366;8.530;2023-03-05T12:11:57;8.00;99.90
5802;DHT22;2927;49.366;8.530;2023-03-05T12:14:35;7.90;99.90
5802;DHT22;2927;49.366;8.530;2023-03-05T12:17:17;7.80;99.90
5802;DHT22;2927;49.366;8.530;2023-03-05T12:19:59;7.80;99.90
5802;DHT22;2927;49.366;8.530;2023-03-05T12:22:36;7.70;99.90
5802;DHT22;2927;49.366;8.530;2023-03-05T12:25:26;7.80;99.90
5802;DHT22;2927;49.366;8.530;2023-03-05T12:27:51;7.80;99.90
5802;DHT22;2927;49.366;8.530;2023-03-05T12:32:58;8.00;99.90
5802;DHT22;2927;49.366;8.530;2023-03-05T12:35:30;8.00;99.90
5802;DHT22;2927;49.366;8.530;2023-03-05T12:37:59;8.10;99.90
5802;DHT22;2927;49.366;8.530;2023-03-05T12:40:30;8.20;99.90
5802;DHT22;2927;49.366;8.530;2023-03-05T12:42:58;8.10;99.90
5802;DHT22;2927;49.366;8.530;2023-03-05T12:53:09;7.80;99.90
5802;DHT22;2927;49.366;8.530;2023-03-05T12:55:48;7.80;99.90
5802;DHT22;2927;49.366;8.530;2023-03-05T12:58:53;7.80;99.90
5802;DHT22;2927;49.366;8.530;2023-03-05T13:01:28;7.60;99.90
5802;DHT22;2927;49.366;8.530;2023-03-05T13:04:04;7.60;99.90
5802;DHT22;2927;49.366;8.530;2023-03-05T13:06:36;7.50;99.90
5802;DHT22;2927;49.366;8.530;2023-03-05T13:09:23;7.50;99.90
5802;DHT22;2927;49.366;8.530;2023-03-05T13:11:51;7.50;99.90
5802;DHT22;2927;49.366;8.530;2023-03-05T13:14:36;7.40;99.90
5802;DHT22;2927;49.366;8.530;2023-03-05T13:17:32;7.40;99.90
5802;DHT22;2927;49.366;8.530;2023-03-05T13:20:00;7.30;99.90
5802;DHT22;2927;49.366;8.530;2023-03-05T13:22:26;7.30;99.90
5802;DHT22;2927;49.366;8.530;2023-03-05T13:25:12;7.30;99.90
5802;DHT22;2927;49.366;8.530;2023-03-05T13:27:38;7.20;99.90
5802;DHT22;2927;49.366;8.530;2023-03-05T13:30:03;7.00;99.90
5802;DHT22;2927;49.366;8.530;2023-03-05T13:32:31;7.00;99.90
5802;DHT22;2927;49.366;8.530;2023-03-05T13:34:59;6.90;99.90
5802;DHT22;2927;49.366;8.530;2023-03-05T13:37:30;6.80;99.90
5802;DHT22;2927;49.366;8.530;2023-03-05T13:40:18;6.90;99.90
5802;DHT22;2927;49.366;8.530;2023-03-05T13:42:43;6.80;99.90
5802;DHT22;2927;49.366;8.530;2023-03-05T13:47:51;6.60;99.90
5802;DHT22;2927;49.366;8.530;2023-03-05T13:52:50;6.60;99.90
5802;DHT22;2927;49.366;8.530;2023-03-05T13:55:16;6.60;99.90
5802;DHT22;2927;49.366;8.530;2023-03-05T13:57:48;6.50;99.90
5802;DHT22;2927;49.366;8.530;2023-03-05T14:00:36;6.50;99.90
5802;DHT22;2927;49.366;8.530;2023-03-05T14:03:26;6.50;99.90
5802;DHT22;2927;49.366;8.530;2023-03-05T14:05:53;6.50;99.90
5802;DHT22;2927;49.366;8.530;2023-03-05T14:08:24;6.50;99.90
5802;DHT22;2927;49.366;8.530;2023-03-05T14:10:50;6.50;99.90
5802;DHT22;2927;49.366;8.530;2023-03-05T14:13:22;6.50;99.90
5802;DHT22;2927;49.366;8.530;2023-03-05T14:16:12;6.50;99.90
5802;DHT22;2927;49.366;8.530;2023-03-05T14:18:49;6.50;99.90
5802;DHT22;2927;49.366;8.530;2023-03-05T14:21:16;6.50;1.00
5802;DHT22;2927;49.366;8.530;2023-03-05T14:23:44;6.40;1.00
5802;DHT22;2927;49.366;8.530;2023-03-05T14:28:38;6.40;1.00
5802;DHT22;2927;49.366;8.530;2023-03-05T14:31:13;6.50;1.00
5802;DHT22;2927;49.366;8.530;2023-03-05T14:33:40;6.50;1.00
5802;DHT22;2927;49.366;8.530;2023-03-05T14:36:07;6.50;1.00
5802;DHT22;2927;49.366;8.530;2023-03-05T14:38:33;6.40;1.00
5802;DHT22;2927;49.366;8.530;2023-03-05T14:41:18;6.40;1.00
5802;DHT22;2927;49.366;8.530;2023-03-05T14:43:44;6.30;1.00
5802;DHT22;2927;49.366;8.530;2023-03-05T14:46:10;6.30;1.00
5802;DHT22;2927;49.366;8.530;2023-03-05T14:48:36;6.20;1.00
5802;DHT22;2927;49.366;8.530;2023-03-05T14:51:01;6.20;1.00
5802;DHT22;2927;49.366;8.530;2023-03-05T14:53:30;6.20;1.00
5802;DHT22;2927;49.366;8.530;2023-03-05T14:55:59;6.20;1.00
5802;DHT22;2927;49.366;8.530;2023-03-05T14:58:30;6.20;1.00
5802;DHT22;2927;49.366;8.530;2023-03-05T15:00:57;6.20;1.00
5802;DHT22;2927;49.366;8.530;2023-03-05T15:03:23;6.10;1.00
5802;DHT22;2927;49.366;8.530;2023-03-05T15:05:51;6.10;1.00
5802;DHT22;2927;49.366;8.530;2023-03-05T15:08:23;6.10;1.00
5802;DHT22;2927;49.366;8.530;2023-03-05T15:10:50;6.10;1.00
5802;DHT22;2927;49.366;8.530;2023-03-05T15:13:16;6.10;1.00
5802;DHT22;2927;49.366;8.530;2023-03-05T15:15:42;6.10;1.00
5802;DHT22;2927;49.366;8.530;2023-03-05T15:18:11;6.00;1.00
5802;DHT22;2927;49.366;8.530;2023-03-05T15:20:37;6.00;1.00
5802;DHT22;2927;49.366;8.530;2023-03-05T15:23:04;6.00;1.00
5802;DHT22;2927;49.366;8.530;2023-03-05T15:25:29;5.90;1.00
5802;DHT22;2927;49.366;8.530;2023-03-05T15:27:55;5.90;1.00
5802;DHT22;2927;49.366;8.530;2023-03-05T15:30:25;5.90;1.00
5802;DHT22;2927;49.366;8.530;2023-03-05T15:32:53;5.90;1.00
5802;DHT22;2927;49.366;8.530;2023-03-05T15:35:19;5.90;1.00
5802;DHT22;2927;49.366;8.530;2023-03-05T15:37:45;5.90;1.00
5802;DHT22;2927;49.366;8.530;2023-03-05T15:40:11;5.90;1.00
5802;DHT22;2927;49.366;8.530;2023-03-05T15:42:37;5.90;1.00
5802;DHT22;2927;49.366;8.530;2023-03-05T15:45:02;5.90;1.00
5802;DHT22;2927;49.366;8.530;2023-03-05T15:47:28;5.90;1.00
5802;DHT22;2927;49.366;8.530;2023-03-05T15:49:53;5.90;1.00
5802;DHT22;2927;49.366;8.530;2023-03-05T15:52:19;5.90;1.00
5802;DHT22;2927;49.366;8.530;2023-03-05T15:54:45;5.90;1.00
5802;DHT22;2927;49.366;8.530;2023-03-05T15:57:11;5.90;1.00
5802;DHT22;2927;49.366;8.530;2023-03-05T15:59:37;5.90;1.00
5802;DHT22;2927;49.366;8.530;2023-03-05T16:02:03;5.90;1.00
5802;DHT22;2927;49.366;8.530;2023-03-05T16:04:29;5.80;1.00
5802;DHT22;2927;49.366;8.530;2023-03-05T16:06:55;5.80;1.00
5802;DHT22;2927;49.366;8.530;2023-03-05T16:09:25;5.90;1.00
5802;DHT22;2927;49.366;8.530;2023-03-05T16:11:54;5.90;1.00
5802;DHT22;2927;49.366;8.530;2023-03-05T16:14:23;6.00;1.00
5802;DHT22;2927;49.366;8.530;2023-03-05T16:16:51;6.00;1.00
5802;DHT22;2927;49.366;8.530;2023-03-05T16:19:18;6.00;1.00
5802;DHT22;2927;49.366;8.530;2023-03-05T16:21:44;6.00;1.00
5802;DHT22;2927;49.366;8.530;2023-03-05T16:24:11;6.00;1.00
5802;DHT22;2927;49.366;8.530;2023-03-05T16:26:37;6.00;1.00
5802;DHT22;2927;49.366;8.530;2023-03-05T16:29:04;6.00;1.00
5802;DHT22;2927;49.366;8.530;2023-03-05T16:31:31;5.90;1.00
5802;DHT22;2927;49.366;8.530;2023-03-05T16:33:58;5.90;1.00
5802;DHT22;2927;49.366;8.530;2023-03-05T16:36:26;5.80;1.00
5802;DHT22;2927;49.366;8.530;2023-03-05T16:38:54;5.70;1.00
5802;DHT22;2927;49.366;8.530;2023-03-05T16:41:20;5.70;1.00
5802;DHT22;2927;49.366;8.530;2023-03-05T16:43:46;5.70;1.00
5802;DHT22;2927;49.366;8.530;2023-03-05T16:46:12;5.70;1.00
5802;DHT22;2927;49.366;8.530;2023-03-05T16:48:40;5.60;1.00
5802;DHT22;2927;49.366;8.530;2023-03-05T16:51:07;5.60;1.00
5802;DHT22;2927;49.366;8.530;2023-03-05T16:53:33;5.50;1.00
5802;DHT22;2927;49.366;8.530;2023-03-05T16:56:01;5.50;1.00
5802;DHT22;2927;49.366;8.530;2023-03-05T16:58:28;5.40;1.00
5802;DHT22;2927;49.366;8.530;2023-03-05T17:00:54;5.40;1.00
5802;DHT22;2927;49.366;8.530;2023-03-05T17:03:20;5.30;20.90
5802;DHT22;2927;49.366;8.530;2023-03-05T17:05:47;5.30;63.10
5802;DHT22;2927;49.366;8.530;2023-03-05T17:08:12;5.20;99.90
5802;DHT22;2927;49.366;8.530;2023-03-05T17:10:38;5.20;99.90
5802;DHT22;2927;49.366;8.530;2023-03-05T17:13:03;5.20;99.90
5802;DHT22;2927;49.366;8.530;2023-03-05T17:15:29;5.20;99.90
5802;DHT22;2927;49.366;8.530;2023-03-05T17:17:54;5.10;99.90
5802;DHT22;2927;49.366;8.530;2023-03-05T17:20:20;5.10;99.90
5802;DHT22;2927;49.366;8.530;2023-03-05T17:22:46;5.10;99.90
5802;DHT22;2927;49.366;8.530;2023-03-05T17:25:12;5.00;99.90
5802;DHT22;2927;49.366;8.530;2023-03-05T17:27:37;5.00;99.90
5802;DHT22;2927;49.366;8.530;2023-03-05T17:30:04;5.00;99.90
5802;DHT22;2927;49.366;8.530;2023-03-05T17:32:30;5.00;99.90
5802;DHT22;2927;49.366;8.530;2023-03-05T17:34:55;5.00;99.90
5802;DHT22;2927;49.366;8.530;2023-03-05T17:37:21;5.00;99.90
5802;DHT22;2927;49.366;8.530;2023-03-05T17:39:47;4.90;99.90
5802;DHT22;2927;49.366;8.530;2023-03-05T17:42:12;4.90;99.90
5802;DHT22;2927;49.366;8.530;2023-03-05T17:44:40;4.90;99.90
5802;DHT22;2927;49.366;8.530;2023-03-05T17:47:06;4.90;1.00
5802;DHT22;2927;49.366;8.530;2023-03-05T17:49:31;4.90;1.00
5802;DHT22;2927;49.366;8.530;2023-03-05T17:51:57;4.80;1.00
5802;DHT22;2927;49.366;8.530;2023-03-05T17:54:22;4.80;1.00
5802;DHT22;2927;49.366;8.530;2023-03-05T17:56:48;4.80;1.00
5802;DHT22;2927;49.366;8.530;2023-03-05T17:59:14;4.80;1.00
5802;DHT22;2927;49.366;8.530;2023-03-05T18:01:40;4.80;1.00